createdAt,value
2022-12-09T00:04:54.686Z,83790.91
2022-12-09T00:09:58.511Z,83747.44
2022-12-09T00:15:01.994Z,83703.97
2022-12-09T00:20:08.765Z,83525.91
2022-12-09T00:25:12.427Z,83190.59
2022-12-09T00:30:16.134Z,83004.28
2022-12-09T00:35:21.092Z,83323.06
2022-12-09T00:40:24.988Z,82838.72
2022-12-09T00:45:28.511Z,82662.78
2022-12-09T00:50:34.397Z,82683.47
2022-12-09T00:55:38.078Z,82828.38
2022-12-09T01:00:41.945Z,82803.53
2022-12-09T01:05:47.516Z,82640.03
2022-12-09T01:10:50.932Z,82691.75
2022-12-09T01:15:54.606Z,82658.66
2022-12-09T01:21:00.483Z,82410.28
2022-12-09T01:26:05.131Z,82457.91
2022-12-09T01:31:10.166Z,82747.66
2022-12-09T01:36:18.059Z,82760.06
2022-12-09T01:41:23.301Z,82772.47
2022-12-09T01:46:26.845Z,82828.38
2022-12-09T01:51:32.866Z,82447.56
2022-12-09T01:56:38.640Z,82780.75
2022-12-09T02:01:47.157Z,82664.84
2022-12-09T02:06:52.503Z,82681.41
2022-12-09T02:12:10.832Z,83022.91
2022-12-09T02:17:27.572Z,82989.81
2022-12-09T02:22:41.562Z,83082.94
2022-12-09T02:27:52.011Z,83234.06
2022-12-09T02:33:15.565Z,83215.41
2022-12-09T02:38:24.638Z,83281.66
2022-12-09T02:43:34.371Z,83203.00
2022-12-09T02:48:42.454Z,83184.38
2022-12-09T02:53:54.089Z,83080.88
2022-12-09T02:58:58.007Z,82977.38
2022-12-09T03:04:04.869Z,83070.53
2022-12-09T03:09:12.969Z,83025.00
2022-12-09T03:14:20.800Z,82907.00
2022-12-09T03:19:29.928Z,82967.03
2022-12-09T03:24:39.577Z,83029.13
2022-12-09T03:29:47.589Z,83372.75
2022-12-09T03:34:55.248Z,83372.75
2022-12-09T03:40:01.698Z,83565.25
2022-12-09T03:45:09.367Z,83389.31
2022-12-09T03:50:14.444Z,83289.94
2022-12-09T03:55:26.005Z,83140.91
2022-12-09T04:00:30.544Z,83269.25
2022-12-09T04:05:34.435Z,83196.78
2022-12-09T04:10:39.473Z,83207.13
2022-12-09T04:15:43.159Z,82944.28
2022-12-09T04:20:46.608Z,82789.03
2022-12-09T04:25:51.791Z,82797.31
2022-12-09T04:30:55.399Z,82600.69
2022-12-09T04:36:05.693Z,82540.69
2022-12-09T04:41:11.715Z,82279.91
2022-12-09T04:46:17.068Z,82145.41
2022-12-09T04:51:20.834Z,81903.28
2022-12-09T04:56:25.805Z,81599.13
2022-12-09T05:01:31.591Z,81737.75
2022-12-09T05:06:35.419Z,81899.16
2022-12-09T05:11:40.400Z,82122.66
2022-12-09T05:16:44.094Z,82205.41
2022-12-09T05:21:48.111Z,82329.59
2022-12-09T05:26:53.708Z,82439.28
2022-12-09T05:31:57.399Z,82503.44
2022-12-09T05:37:01.224Z,82608.97
2022-12-09T05:42:06.597Z,82391.66
2022-12-09T05:47:10.617Z,82035.72
2022-12-09T05:52:14.553Z,81746.03
2022-12-09T05:57:19.866Z,81605.34
2022-12-09T06:02:23.641Z,81408.78
2022-12-09T06:07:27.792Z,81230.84
2022-12-09T06:12:33.362Z,81150.16
2022-12-09T06:17:37.293Z,81011.53
2022-12-09T06:22:41.300Z,81011.53
2022-12-09T06:27:46.237Z,81011.53
2022-12-09T06:32:49.846Z,81011.53
2022-12-09T06:37:54.178Z,81011.53
2022-12-09T06:42:59.193Z,81011.53
2022-12-09T06:48:02.726Z,81011.53
2022-12-09T06:53:07.281Z,81011.53
2022-12-09T06:58:12.818Z,81011.53
2022-12-09T07:03:16.639Z,81011.53
2022-12-09T07:08:20.785Z,81011.53
2022-12-09T07:13:26.450Z,81011.53
2022-12-09T07:18:30.135Z,81011.53
2022-12-09T07:23:34.161Z,81011.53
2022-12-09T07:28:42.697Z,81011.53
2022-12-09T07:33:47.026Z,81011.53
2022-12-09T07:38:56.530Z,81011.53
2022-12-09T07:44:02.068Z,81011.53
2022-12-09T07:49:07.416Z,81011.53
2022-12-09T07:54:13.979Z,81011.53
2022-12-09T07:59:19.744Z,81011.53
2022-12-09T08:04:23.855Z,81011.53
2022-12-09T08:09:28.290Z,81011.53
2022-12-09T08:14:34.198Z,81011.53
2022-12-09T08:19:38.017Z,81011.53
2022-12-09T08:24:41.999Z,81011.53
2022-12-09T08:29:48.134Z,81011.53
2022-12-09T08:34:52.005Z,81011.53
2022-12-09T08:39:56.049Z,81011.53
2022-12-09T08:45:02.943Z,79342.38
2022-12-09T08:50:08.810Z,79698.06
2022-12-09T08:55:13.461Z,80465.41
2022-12-09T09:00:20.370Z,80912.25
2022-12-09T09:05:24.820Z,81348.78
2022-12-09T09:10:30.332Z,81955.03
2022-12-09T09:15:35.892Z,82164.03
2022-12-09T09:20:39.641Z,82635.88
2022-12-09T09:25:47.689Z,82789.03
2022-12-09T09:31:01.712Z,83051.91
2022-12-09T09:36:10.473Z,83213.34
2022-12-09T09:41:39.536Z,83314.78
2022-12-09T09:46:47.976Z,82964.97
2022-12-09T09:51:52.029Z,82964.97
2022-12-09T09:57:02.152Z,82863.53
2022-12-09T10:02:18.486Z,82431.00
2022-12-09T10:07:27.367Z,82050.22
2022-12-09T10:12:41.754Z,81458.44
2022-12-09T10:17:52.152Z,81013.63
2022-12-09T10:23:01.308Z,81013.63
2022-12-09T10:28:10.880Z,81013.63
2022-12-09T10:33:19.058Z,81013.63
2022-12-09T10:38:23.690Z,81013.63
2022-12-09T10:43:37.552Z,81013.63
2022-12-09T10:48:53.072Z,81013.63
2022-12-09T10:54:00.932Z,81013.63
2022-12-09T10:59:29.998Z,81013.63
2022-12-09T11:04:37.795Z,81013.63
2022-12-09T11:09:44.818Z,81013.63
2022-12-09T11:14:55.521Z,81013.63
2022-12-09T11:20:19.563Z,81013.63
2022-12-09T11:25:27.345Z,81013.63
2022-12-09T11:30:34.172Z,81013.63
2022-12-09T11:35:53.109Z,81013.63
2022-12-09T11:41:05.082Z,81013.63
2022-12-09T11:46:23.065Z,81013.63
2022-12-09T11:51:33.197Z,81013.63
2022-12-09T11:56:40.330Z,81013.63
2022-12-09T12:01:53.750Z,81013.63
2022-12-09T12:07:04.624Z,81013.22
2022-12-09T12:12:18.450Z,81013.22
2022-12-09T12:17:28.170Z,81013.63
2022-12-09T12:22:54.853Z,81013.63
2022-12-09T12:28:17.833Z,81013.63
2022-12-09T12:39:27.424Z,81013.63
2022-12-09T12:44:59.305Z,81013.63
2022-12-09T12:50:29.784Z,81013.63
2022-12-09T12:55:48.978Z,81013.63
2022-12-09T13:01:01.895Z,81013.63
2022-12-09T13:06:10.149Z,81013.63
2022-12-09T13:11:21.003Z,81013.63
2022-12-09T13:16:29.139Z,81013.63
2022-12-09T13:21:33.233Z,81013.63
2022-12-09T13:26:50.840Z,81013.63
2022-12-09T13:32:03.867Z,81013.22
2022-12-09T13:37:55.272Z,81013.22
2022-12-09T13:43:08.263Z,81013.22
2022-12-09T13:48:41.815Z,81013.22
2022-12-09T13:53:53.667Z,81013.22
2022-12-09T13:59:40.264Z,81013.22
2022-12-09T14:04:51.158Z,81013.22
2022-12-09T14:09:57.030Z,81013.22
2022-12-09T14:15:03.188Z,81013.22
2022-12-09T14:20:19.271Z,81013.22
2022-12-09T14:25:56.224Z,81013.63
2022-12-09T14:31:08.044Z,81013.63
2022-12-09T14:36:27.984Z,81013.22
2022-12-09T14:41:35.981Z,81013.63
2022-12-09T14:46:43.379Z,81013.63
2022-12-09T14:51:51.042Z,81013.63
2022-12-09T14:56:58.300Z,81013.63
2022-12-09T15:02:17.187Z,81013.63
2022-12-09T15:07:22.846Z,81013.63
2022-12-09T15:12:31.433Z,81013.63
2022-12-09T15:17:43.381Z,81013.63
2022-12-09T15:22:53.011Z,81013.63
2022-12-09T15:28:00.000Z,81013.63
2022-12-09T15:33:15.221Z,81013.63
2022-12-09T15:38:19.391Z,81013.63
2022-12-09T15:43:23.079Z,81013.63
2022-12-09T15:48:33.094Z,81013.63
2022-12-09T15:53:42.746Z,81013.63
2022-12-09T15:58:49.610Z,81013.63
2022-12-09T16:03:57.162Z,81013.63
2022-12-09T16:09:01.834Z,81013.63
2022-12-09T16:14:06.118Z,81013.63
2022-12-09T16:30:21.647Z,-11382.94
2022-12-09T16:35:27.586Z,-11382.94
2022-12-09T16:41:02.282Z,-11382.94
2022-12-09T16:46:40.506Z,-11382.94
2022-12-09T16:51:44.193Z,-11382.94
2022-12-09T16:56:51.445Z,-11382.94
2022-12-09T17:01:55.553Z,-11382.94
2022-12-09T17:06:59.375Z,-11382.94
2022-12-09T17:12:04.677Z,-11382.94
2022-12-09T17:17:08.583Z,-11382.94
2022-12-09T17:22:12.635Z,-11382.94
2022-12-09T17:27:18.133Z,-11382.94
2022-12-09T17:32:21.723Z,-11382.94
2022-12-09T17:37:25.399Z,-11382.94
2022-12-09T17:42:30.553Z,-11382.94
2022-12-09T17:47:34.319Z,-11382.94
2022-12-09T17:52:38.034Z,-11382.94
2022-12-09T17:57:42.959Z,-11382.94
2022-12-09T18:02:46.629Z,-11382.94
2022-12-09T18:07:50.536Z,-11382.94
2022-12-09T18:12:55.737Z,-11382.94
2022-12-09T18:17:59.632Z,-11382.94
2022-12-09T18:23:03.173Z,-11382.94
2022-12-09T18:28:09.271Z,-11382.94
2022-12-09T18:33:13.158Z,-11382.94
2022-12-09T18:38:17.065Z,-11382.94
2022-12-09T18:43:22.269Z,-11382.94
2022-12-09T18:48:25.959Z,-11382.94
2022-12-09T18:53:29.960Z,-11382.94
2022-12-09T18:58:57.863Z,-11382.94
2022-12-09T19:04:01.487Z,-11382.94
2022-12-09T19:09:07.088Z,-11382.94
2022-12-09T19:14:12.637Z,-11382.94
2022-12-09T19:19:18.379Z,-11382.94
2022-12-09T19:24:24.090Z,-11382.94
2022-12-09T19:29:29.399Z,-11382.94
2022-12-09T19:34:33.782Z,-11382.94
2022-12-09T19:39:37.920Z,-11382.94
2022-12-09T19:45:00.847Z,-11382.94
2022-12-09T19:50:07.397Z,-11382.94
2022-12-09T19:55:11.481Z,-11382.94
2022-12-09T20:00:18.363Z,-11382.94
2022-12-09T20:05:22.195Z,-11382.94
2022-12-09T20:10:25.940Z,-11382.94
2022-12-09T20:15:30.747Z,-11382.94
2022-12-09T20:20:34.753Z,-11382.94
2022-12-09T20:25:38.645Z,-11382.94
2022-12-09T20:30:43.812Z,-11382.94
2022-12-09T20:35:47.398Z,-11382.94
2022-12-09T20:40:51.157Z,-11382.94
2022-12-09T20:45:56.048Z,-11382.94
2022-12-09T20:50:59.732Z,-11382.94
2022-12-09T20:56:05.260Z,-11382.94
2022-12-09T21:01:12.746Z,-11382.94
2022-12-09T21:06:18.296Z,-11382.94
2022-12-09T21:11:23.916Z,-11382.94
2022-12-09T21:16:31.540Z,-11382.94
2022-12-09T21:21:37.515Z,-11382.94
2022-12-09T21:26:41.659Z,-11382.94
2022-12-09T21:31:48.442Z,-11382.94
2022-12-09T21:36:52.835Z,-11382.94
2022-12-09T21:41:56.335Z,-11382.94
2022-12-09T21:47:01.354Z,-11382.94
2022-12-09T21:52:06.626Z,-11382.94
2022-12-09T21:57:10.151Z,-11382.94
2022-12-09T22:02:15.094Z,-11382.94
2022-12-09T22:07:18.945Z,-11382.94
2022-12-09T22:12:22.585Z,-11382.94
2022-12-09T22:17:27.609Z,-11382.94
2022-12-09T22:22:31.807Z,-11382.94
2022-12-09T22:27:36.179Z,-11382.94
2022-12-09T22:32:43.496Z,-11382.94
2022-12-09T22:37:49.606Z,-11382.94
2022-12-09T22:42:53.305Z,-11382.94
2022-12-09T22:47:58.266Z,-11382.94
2022-12-09T22:53:01.914Z,-11382.94
2022-12-09T22:58:05.651Z,-11382.94
2022-12-09T23:03:10.931Z,-11382.94
2022-12-09T23:08:14.732Z,-11382.94
2022-12-09T23:13:18.352Z,-11382.94
2022-12-09T23:18:23.309Z,-11382.94
2022-12-09T23:23:26.962Z,-11382.94
2022-12-09T23:28:30.502Z,-11382.94
2022-12-09T23:33:36.085Z,-11382.94
2022-12-09T23:38:39.885Z,-11382.94
2022-12-09T23:43:43.428Z,-11382.94
2022-12-09T23:48:50.256Z,-11382.94
2022-12-09T23:53:56.274Z,-11382.94
2022-12-09T23:59:01.986Z,-11382.94
